createdAt,value
2019-03-30T00:01:40.512Z,57.44
2019-03-30T00:04:10.327Z,58.80
2019-03-30T00:06:42.333Z,60.04
2019-03-30T00:09:15.246Z,60.16
2019-03-30T00:11:44.860Z,60.43
2019-03-30T00:14:26.587Z,60.20
2019-03-30T00:16:56.226Z,60.98
2019-03-30T00:19:34.904Z,60.42
2019-03-30T00:21:57.835Z,60.35
2019-03-30T00:24:30.588Z,60.50
2019-03-30T00:27:00.695Z,59.85
2019-03-30T00:29:31.836Z,60.08
2019-03-30T00:32:07.238Z,61.02
2019-03-30T00:34:43.895Z,61.27
2019-03-30T00:37:15.957Z,61.17
2019-03-30T00:39:46.561Z,60.91
2019-03-30T00:42:16.126Z,60.88
2019-03-30T00:44:52.010Z,61.54
2019-03-30T00:47:21.936Z,61.30
2019-03-30T00:49:51.556Z,61.37
2019-03-30T00:52:24.240Z,61.30
2019-03-30T00:54:53.925Z,60.87
2019-03-30T00:57:29.366Z,62.10
2019-03-30T01:00:01.533Z,61.95
2019-03-30T01:02:31.144Z,62.53
2019-03-30T01:05:03.613Z,63.04
2019-03-30T01:07:36.475Z,62.59
2019-03-30T01:10:09.116Z,62.99
2019-03-30T01:12:38.898Z,62.68
2019-03-30T01:15:08.918Z,64.10
2019-03-30T01:17:40.024Z,64.11
2019-03-30T01:20:12.200Z,64.05
2019-03-30T01:22:47.007Z,64.15
2019-03-30T01:25:16.644Z,64.51
2019-03-30T01:27:48.336Z,63.20
2019-03-30T01:30:23.857Z,63.38
2019-03-30T01:32:53.555Z,62.65
2019-03-30T01:35:23.469Z,63.49
2019-03-30T01:37:53.230Z,64.82
2019-03-30T01:40:23.055Z,64.81
2019-03-30T01:42:55.473Z,64.68
2019-03-30T01:45:25.080Z,65.06
2019-03-30T01:47:54.710Z,65.55
2019-03-30T01:50:24.513Z,66.17
2019-03-30T01:52:54.233Z,66.10
2019-03-30T01:55:23.859Z,66.02
2019-03-30T01:57:53.957Z,66.28
2019-03-30T02:00:25.395Z,66.59
2019-03-30T02:02:55.098Z,65.85
2019-03-30T02:05:27.648Z,66.04
2019-03-30T02:08:00.235Z,65.86
2019-03-30T02:10:44.550Z,65.96
2019-03-30T02:13:18.242Z,65.85
2019-03-30T02:15:47.833Z,65.51
2019-03-30T02:18:17.437Z,65.68
2019-03-30T02:20:48.471Z,66.22
2019-03-30T02:23:19.946Z,66.93
2019-03-30T02:25:55.639Z,67.90
2019-03-30T02:28:34.583Z,67.54
2019-03-30T02:31:04.185Z,67.55
2019-03-30T02:33:33.892Z,67.86
2019-03-30T02:36:05.084Z,68.08
2019-03-30T02:38:37.496Z,67.30
2019-03-30T02:41:09.083Z,67.16
2019-03-30T02:43:39.324Z,66.82
2019-03-30T02:46:11.773Z,66.98
2019-03-30T02:48:41.442Z,67.30
2019-03-30T02:51:15.631Z,68.30
2019-03-30T02:53:45.352Z,68.10
2019-03-30T02:56:16.757Z,67.79
2019-03-30T02:58:49.212Z,67.49
2019-03-30T03:01:21.721Z,67.51
2019-03-30T03:03:53.445Z,67.17
2019-03-30T03:06:23.083Z,67.50
2019-03-30T03:08:52.668Z,67.47
2019-03-30T03:11:24.107Z,66.72
2019-03-30T03:13:56.539Z,66.82
2019-03-30T03:16:27.524Z,67.84
2019-03-30T03:18:57.692Z,68.39
2019-03-30T03:21:30.335Z,67.96
2019-03-30T03:24:03.013Z,67.14
2019-03-30T03:26:35.994Z,66.61
2019-03-30T03:29:05.721Z,66.85
2019-03-30T03:31:40.990Z,66.40
2019-03-30T03:34:11.776Z,66.63
2019-03-30T03:36:44.114Z,65.21
2019-03-30T03:39:24.436Z,65.39
2019-03-30T03:41:55.813Z,65.97
2019-03-30T03:44:27.628Z,67.06
2019-03-30T03:46:59.092Z,66.85
2019-03-30T03:49:30.099Z,67.10
2019-03-30T03:52:00.522Z,67.75
2019-03-30T03:54:33.610Z,67.41
2019-03-30T03:57:05.809Z,67.48
2019-03-30T03:59:39.269Z,67.86
2019-03-30T04:02:09.450Z,67.62
2019-03-30T04:04:40.386Z,67.98
2019-03-30T04:07:10.548Z,67.46
2019-03-30T04:09:44.720Z,66.79
2019-03-30T04:12:18.736Z,68.12
2019-03-30T04:14:53.806Z,66.38
2019-03-30T04:17:23.454Z,67.02
2019-03-30T04:19:54.914Z,67.83
2019-03-30T04:22:24.511Z,68.08
2019-03-30T04:24:57.463Z,67.25
2019-03-30T04:27:27.083Z,67.01
2019-03-30T04:29:57.060Z,67.13
2019-03-30T04:32:31.783Z,66.81
2019-03-30T04:35:07.203Z,66.07
2019-03-30T04:37:36.923Z,66.25
2019-03-30T04:40:07.843Z,66.46
2019-03-30T04:42:37.467Z,66.03
2019-03-30T04:45:07.538Z,66.73
2019-03-30T04:47:37.181Z,66.79
2019-03-30T04:50:08.458Z,67.38
2019-03-30T04:52:41.935Z,66.56
2019-03-30T04:55:13.316Z,66.58
2019-03-30T04:57:44.445Z,67.33
2019-03-30T05:00:15.897Z,68.14
2019-03-30T05:02:51.231Z,69.39
2019-03-30T05:05:23.846Z,69.34
2019-03-30T05:08:03.086Z,68.44
2019-03-30T05:10:32.695Z,68.46
2019-03-30T05:13:05.273Z,68.03
2019-03-30T05:15:36.300Z,68.10
2019-03-30T05:18:05.897Z,68.12
2019-03-30T05:20:38.038Z,68.44
2019-03-30T05:23:09.221Z,68.23
2019-03-30T05:25:38.964Z,68.56
2019-03-30T05:28:08.553Z,68.65
2019-03-30T05:30:38.574Z,68.85
2019-03-30T05:33:08.915Z,68.12
2019-03-30T05:35:38.619Z,67.76
2019-03-30T05:38:12.897Z,67.50
2019-03-30T05:40:48.390Z,67.03
2019-03-30T05:43:18.005Z,66.83
2019-03-30T05:45:50.621Z,65.93
2019-03-30T05:48:24.702Z,65.26
2019-03-30T05:51:00.507Z,64.64
2019-03-30T05:53:30.150Z,65.78
2019-03-30T05:56:00.756Z,66.08
2019-03-30T05:58:30.345Z,66.41
2019-03-30T06:01:11.941Z,65.88
2019-03-30T06:03:42.985Z,65.21
2019-03-30T06:06:14.544Z,65.83
2019-03-30T06:08:51.374Z,65.15
2019-03-30T06:11:26.483Z,64.68
2019-03-30T06:13:56.323Z,65.49
2019-03-30T06:16:26.152Z,65.00
2019-03-30T06:18:57.806Z,64.74
2019-03-30T06:21:27.416Z,64.43
2019-03-30T06:23:58.441Z,64.10
2019-03-30T06:26:28.266Z,63.04
2019-03-30T06:28:59.003Z,63.31
2019-03-30T06:31:28.857Z,61.14
2019-03-30T06:33:58.502Z,60.07
2019-03-30T06:36:38.540Z,60.62
2019-03-30T06:39:12.459Z,59.65
2019-03-30T06:41:43.352Z,59.43
2019-03-30T06:44:13.000Z,60.50
2019-03-30T06:46:43.949Z,59.37
2019-03-30T06:49:13.803Z,59.44
2019-03-30T06:51:55.384Z,59.66
2019-03-30T06:54:28.081Z,60.99
2019-03-30T06:56:57.746Z,61.79
2019-03-30T06:59:28.796Z,62.28
2019-03-30T07:01:58.443Z,61.73
2019-03-30T07:04:29.375Z,61.11
2019-03-30T07:07:00.785Z,60.88
2019-03-30T07:09:34.641Z,61.52
2019-03-30T07:12:08.023Z,60.83
2019-03-30T07:14:40.214Z,60.11
2019-03-30T07:17:12.229Z,59.63
2019-03-30T07:19:45.294Z,58.56
2019-03-30T07:22:19.850Z,58.46
2019-03-30T07:24:49.434Z,57.65
2019-03-30T07:27:19.254Z,55.73
2019-03-30T07:29:52.539Z,53.66
2019-03-30T07:32:26.444Z,52.74
2019-03-30T07:34:55.619Z,52.33
2019-03-30T07:37:25.632Z,53.45
2019-03-30T07:39:58.112Z,52.19
2019-03-30T07:42:34.171Z,50.89
2019-03-30T07:45:06.830Z,52.23
2019-03-30T07:47:36.507Z,51.91
2019-03-30T07:50:07.984Z,50.29
2019-03-30T07:52:37.903Z,49.23
2019-03-30T07:55:12.421Z,49.04
2019-03-30T07:57:43.086Z,49.27
2019-03-30T08:00:12.971Z,49.56
2019-03-30T08:02:44.120Z,50.78
2019-03-30T08:05:18.854Z,49.44
2019-03-30T08:07:48.533Z,49.31
2019-03-30T08:10:19.495Z,48.85
2019-03-30T08:12:52.027Z,48.81
2019-03-30T08:15:21.682Z,49.98
2019-03-30T08:17:51.536Z,48.88
2019-03-30T08:20:21.258Z,48.65
2019-03-30T08:22:51.146Z,47.84
2019-03-30T08:25:20.912Z,46.82
2019-03-30T08:27:50.539Z,46.38
2019-03-30T08:30:22.049Z,46.79
2019-03-30T08:32:52.133Z,46.56
2019-03-30T08:35:32.203Z,48.21
2019-03-30T08:38:01.805Z,47.69
2019-03-30T08:40:32.937Z,47.74
2019-03-30T08:43:02.649Z,47.52
2019-03-30T08:45:33.367Z,46.43
2019-03-30T08:48:08.858Z,46.90
2019-03-30T08:50:40.055Z,46.58
2019-03-30T08:53:09.673Z,45.61
2019-03-30T08:55:40.602Z,44.92
2019-03-30T08:58:13.223Z,45.48
2019-03-30T09:00:46.339Z,45.70
2019-03-30T09:03:16.319Z,45.96
2019-03-30T09:05:46.031Z,45.42
2019-03-30T09:08:15.759Z,44.88
2019-03-30T09:10:48.508Z,45.01
2019-03-30T09:13:18.634Z,44.24
2019-03-30T09:15:50.782Z,43.97
2019-03-30T09:18:29.689Z,43.49
2019-03-30T09:21:00.997Z,43.27
2019-03-30T09:23:32.938Z,43.06
2019-03-30T09:26:04.532Z,43.10
2019-03-30T09:28:40.576Z,43.10
2019-03-30T09:31:11.677Z,42.49
2019-03-30T09:33:45.546Z,41.54
2019-03-30T09:36:17.558Z,41.13
2019-03-30T09:38:47.336Z,40.74
2019-03-30T09:41:21.076Z,40.62
2019-03-30T09:43:55.746Z,40.76
2019-03-30T09:46:28.780Z,41.03
2019-03-30T09:49:01.571Z,41.10
2019-03-30T09:51:37.543Z,41.32
2019-03-30T09:54:07.610Z,41.41
2019-03-30T09:56:37.228Z,41.34
2019-03-30T09:59:11.805Z,42.36
2019-03-30T10:01:45.582Z,40.52
2019-03-30T10:04:15.201Z,41.42
2019-03-30T10:06:48.291Z,41.01
2019-03-30T10:09:23.674Z,41.61
2019-03-30T10:11:53.381Z,41.89
2019-03-30T10:14:27.047Z,41.95
2019-03-30T10:16:56.700Z,41.20
2019-03-30T10:19:27.845Z,40.64
2019-03-30T10:22:00.379Z,40.67
2019-03-30T10:24:38.452Z,39.84
2019-03-30T10:27:04.440Z,39.99
2019-03-30T10:29:34.071Z,40.01
2019-03-30T10:32:03.684Z,39.74
2019-03-30T10:34:34.788Z,40.41
2019-03-30T10:37:11.493Z,40.25
2019-03-30T10:39:43.271Z,40.00
2019-03-30T10:42:13.118Z,39.58
2019-03-30T10:44:43.589Z,39.31
2019-03-30T10:47:15.431Z,38.49
2019-03-30T10:49:45.099Z,38.42
2019-03-30T10:52:15.458Z,37.87
2019-03-30T10:54:52.640Z,37.09
2019-03-30T10:57:19.479Z,37.02
2019-03-30T10:59:56.428Z,36.11
2019-03-30T11:02:27.303Z,34.84
2019-03-30T11:04:57.298Z,35.50
2019-03-30T11:07:27.003Z,34.41
2019-03-30T11:09:56.650Z,34.43
2019-03-30T11:12:26.415Z,31.37
2019-03-30T11:14:58.826Z,35.03
2019-03-30T11:17:32.173Z,35.11
2019-03-30T11:20:04.978Z,33.20
2019-03-30T11:22:34.892Z,33.71
2019-03-30T11:25:08.053Z,33.77
2019-03-30T11:27:38.823Z,33.80
2019-03-30T11:30:17.572Z,32.96
2019-03-30T11:32:47.192Z,31.06
2019-03-30T11:35:20.764Z,31.98
2019-03-30T11:37:50.424Z,32.94
2019-03-30T11:40:26.590Z,30.13
2019-03-30T11:42:55.884Z,29.92
2019-03-30T11:45:28.364Z,29.09
2019-03-30T11:47:58.090Z,28.70
2019-03-30T11:50:32.432Z,30.28
2019-03-30T11:53:02.073Z,29.84
2019-03-30T11:55:32.999Z,31.49
2019-03-30T11:58:08.844Z,32.05
2019-03-30T12:00:40.209Z,30.28
2019-03-30T12:03:09.903Z,29.23
2019-03-30T12:05:41.894Z,29.22
2019-03-30T12:08:11.515Z,28.83
2019-03-30T12:10:43.965Z,29.67
2019-03-30T12:13:13.628Z,30.50
2019-03-30T12:15:45.140Z,30.65
2019-03-30T12:18:14.750Z,29.82
2019-03-30T12:20:45.745Z,29.35
2019-03-30T12:23:15.433Z,29.49
2019-03-30T12:25:58.395Z,29.88
2019-03-30T12:28:29.646Z,29.96
2019-03-30T12:31:03.792Z,29.87
2019-03-30T12:33:36.543Z,29.30
2019-03-30T12:36:06.226Z,29.33
2019-03-30T12:38:38.604Z,29.40
2019-03-30T12:41:08.310Z,28.00
2019-03-30T12:43:39.125Z,28.52
2019-03-30T12:46:08.996Z,29.10
2019-03-30T12:48:40.069Z,29.12
2019-03-30T12:51:12.267Z,28.53
2019-03-30T12:53:54.080Z,28.33
2019-03-30T12:56:24.672Z,28.99
2019-03-30T12:58:54.351Z,29.95
2019-03-30T13:01:27.654Z,27.50
2019-03-30T13:03:57.850Z,28.02
2019-03-30T13:06:27.901Z,28.21
2019-03-30T13:08:58.942Z,28.06
2019-03-30T13:11:29.899Z,27.89
2019-03-30T13:13:59.581Z,27.69
2019-03-30T13:16:29.206Z,28.34
2019-03-30T13:19:01.235Z,28.18
2019-03-30T13:21:32.417Z,27.59
2019-03-30T13:24:03.289Z,27.08
2019-03-30T13:26:32.931Z,29.98
2019-03-30T13:29:03.485Z,26.39
2019-03-30T13:31:34.540Z,26.30
2019-03-30T13:34:06.083Z,26.87
2019-03-30T13:36:40.261Z,25.89
2019-03-30T13:39:12.565Z,26.89
2019-03-30T13:41:47.308Z,27.37
2019-03-30T13:44:18.778Z,27.16
2019-03-30T13:46:48.476Z,26.36
2019-03-30T13:49:22.177Z,26.03
2019-03-30T13:51:51.793Z,25.90
2019-03-30T13:54:24.954Z,25.85
2019-03-30T13:56:58.168Z,25.96
2019-03-30T13:59:29.190Z,26.16
2019-03-30T14:02:00.411Z,26.68
2019-03-30T14:04:34.267Z,26.88
2019-03-30T14:07:03.887Z,26.79
2019-03-30T14:09:34.080Z,26.66
2019-03-30T14:12:10.257Z,28.17
2019-03-30T14:14:39.606Z,27.16
2019-03-30T14:17:12.380Z,27.58
2019-03-30T14:19:43.765Z,27.30
2019-03-30T14:22:14.498Z,26.93
2019-03-30T14:24:44.143Z,27.08
2019-03-30T14:27:17.948Z,26.08
2019-03-30T14:29:47.551Z,25.48
2019-03-30T14:32:17.544Z,26.42
2019-03-30T14:34:49.861Z,26.61
2019-03-30T14:37:23.093Z,26.27
2019-03-30T14:39:52.733Z,27.02
2019-03-30T14:42:27.078Z,25.77
2019-03-30T14:44:58.801Z,26.71
2019-03-30T14:47:28.387Z,26.30
2019-03-30T14:49:58.008Z,25.49
2019-03-30T14:52:31.856Z,26.20
2019-03-30T14:55:02.015Z,26.47
2019-03-30T14:57:31.607Z,26.82
2019-03-30T15:00:01.305Z,26.75
2019-03-30T15:02:31.031Z,26.68
2019-03-30T15:05:01.249Z,27.36
2019-03-30T15:07:31.269Z,26.15
2019-03-30T15:10:02.477Z,26.57
2019-03-30T15:12:32.532Z,26.24
2019-03-30T15:15:03.710Z,26.41
2019-03-30T15:17:35.727Z,27.62
2019-03-30T15:20:06.138Z,27.29
2019-03-30T15:22:35.960Z,26.83
2019-03-30T15:25:08.922Z,26.39
2019-03-30T15:27:39.864Z,26.50
2019-03-30T15:30:09.939Z,26.44
2019-03-30T15:32:39.526Z,26.54
2019-03-30T15:35:09.484Z,27.04
2019-03-30T15:37:39.128Z,27.38
2019-03-30T15:40:09.647Z,26.88
2019-03-30T15:42:40.835Z,26.49
2019-03-30T15:45:11.599Z,26.36
2019-03-30T15:47:45.307Z,27.19
2019-03-30T15:50:15.677Z,27.85
2019-03-30T15:52:47.036Z,27.52
2019-03-30T15:55:19.636Z,27.88
2019-03-30T15:57:55.013Z,27.54
2019-03-30T16:00:29.151Z,27.43
2019-03-30T16:02:59.154Z,27.50
2019-03-30T16:05:33.636Z,27.59
2019-03-30T16:08:08.432Z,27.87
2019-03-30T16:10:40.981Z,27.58
2019-03-30T16:13:14.593Z,28.05
2019-03-30T16:15:45.124Z,28.15
2019-03-30T16:18:17.216Z,28.53
2019-03-30T16:20:47.118Z,28.47
2019-03-30T16:23:16.703Z,28.81
2019-03-30T16:25:46.357Z,28.14
2019-03-30T16:28:18.158Z,28.29
2019-03-30T16:30:52.549Z,28.54
2019-03-30T16:33:27.045Z,29.25
2019-03-30T16:35:55.999Z,28.47
2019-03-30T16:38:25.632Z,28.79
2019-03-30T16:40:58.069Z,29.35
2019-03-30T16:43:27.869Z,28.45
2019-03-30T16:46:01.643Z,28.67
2019-03-30T16:48:34.267Z,28.92
2019-03-30T16:51:03.964Z,29.38
2019-03-30T16:53:33.545Z,29.95
2019-03-30T16:56:03.980Z,30.06
2019-03-30T16:58:33.884Z,30.49
2019-03-30T17:01:03.521Z,30.58
2019-03-30T17:03:33.167Z,30.22
2019-03-30T17:06:02.784Z,29.26
2019-03-30T17:08:32.869Z,29.40
2019-03-30T17:11:02.476Z,29.39
2019-03-30T17:13:33.261Z,29.64
2019-03-30T17:16:03.031Z,29.92
2019-03-30T17:18:38.373Z,29.69
2019-03-30T17:21:11.038Z,29.84
2019-03-30T17:23:41.662Z,29.83
2019-03-30T17:26:11.859Z,29.89
2019-03-30T17:28:43.300Z,30.07
2019-03-30T17:31:12.926Z,30.17
2019-03-30T17:33:45.900Z,30.56
2019-03-30T17:36:16.047Z,30.70
2019-03-30T17:38:47.670Z,30.92
2019-03-30T17:41:18.867Z,31.38
2019-03-30T17:43:48.446Z,31.40
2019-03-30T17:46:19.279Z,32.04
2019-03-30T17:48:48.905Z,31.49
2019-03-30T17:51:24.125Z,31.77
2019-03-30T17:53:54.004Z,31.12
2019-03-30T17:56:23.669Z,31.17
2019-03-30T17:58:54.579Z,31.16
2019-03-30T18:01:26.783Z,31.44
2019-03-30T18:04:00.750Z,31.24
2019-03-30T18:06:32.873Z,31.52
2019-03-30T18:09:02.972Z,32.12
2019-03-30T18:11:35.172Z,32.40
2019-03-30T18:14:07.309Z,32.63
2019-03-30T18:16:41.421Z,32.67
2019-03-30T18:19:14.845Z,32.30
2019-03-30T18:21:51.595Z,32.80
2019-03-30T18:24:21.200Z,33.32
2019-03-30T18:26:50.772Z,33.69
2019-03-30T18:29:20.560Z,33.65
2019-03-30T18:31:53.794Z,33.68
2019-03-30T18:34:26.326Z,33.60
2019-03-30T18:36:56.560Z,33.98
2019-03-30T18:39:29.551Z,34.65
2019-03-30T18:41:59.161Z,34.64
2019-03-30T18:44:29.078Z,34.28
2019-03-30T18:46:58.766Z,34.54
2019-03-30T18:49:34.584Z,33.87
2019-03-30T18:52:07.226Z,35.06
2019-03-30T18:54:41.391Z,35.17
2019-03-30T18:57:11.382Z,36.20
2019-03-30T18:59:41.093Z,35.84
2019-03-30T19:02:12.592Z,37.11
2019-03-30T19:04:43.745Z,36.26
2019-03-30T19:07:17.778Z,36.77
2019-03-30T19:09:55.402Z,36.00
2019-03-30T19:12:27.430Z,36.33
2019-03-30T19:15:02.601Z,36.44
2019-03-30T19:17:33.510Z,37.02
2019-03-30T19:20:04.989Z,36.89
2019-03-30T19:22:35.118Z,38.18
2019-03-30T19:25:07.590Z,40.12
2019-03-30T19:27:37.201Z,39.08
2019-03-30T19:30:09.090Z,38.74
2019-03-30T19:32:42.758Z,37.91
2019-03-30T19:35:23.893Z,37.92
2019-03-30T19:37:53.485Z,37.99
2019-03-30T19:40:23.117Z,38.07
2019-03-30T19:43:00.375Z,38.02
2019-03-30T19:45:32.587Z,38.30
2019-03-30T19:48:03.341Z,38.53
2019-03-30T19:50:37.295Z,41.22
2019-03-30T19:53:06.912Z,40.33
2019-03-30T19:55:41.334Z,40.04
2019-03-30T19:58:11.571Z,38.77
2019-03-30T20:00:42.981Z,39.76
2019-03-30T20:03:12.693Z,39.70
2019-03-30T20:05:44.646Z,39.66
2019-03-30T20:08:13.816Z,40.71
2019-03-30T20:10:46.869Z,41.25
2019-03-30T20:13:22.620Z,41.02
2019-03-30T20:15:52.296Z,42.08
2019-03-30T20:18:24.966Z,42.76
2019-03-30T20:20:54.807Z,43.30
2019-03-30T20:23:34.948Z,42.98
2019-03-30T20:26:05.701Z,42.88
2019-03-30T20:28:36.735Z,44.07
2019-03-30T20:31:06.381Z,42.16
2019-03-30T20:33:40.146Z,42.71
2019-03-30T20:36:10.795Z,42.58
2019-03-30T20:38:40.966Z,43.12
2019-03-30T20:41:10.596Z,41.97
2019-03-30T20:43:50.527Z,41.82
2019-03-30T20:46:20.459Z,41.76
2019-03-30T20:48:53.165Z,42.33
2019-03-30T20:51:22.890Z,42.26
2019-03-30T20:53:55.004Z,42.15
2019-03-30T20:56:26.158Z,43.11
2019-03-30T20:58:57.544Z,42.17
2019-03-30T21:01:29.898Z,42.42
2019-03-30T21:04:01.650Z,42.06
2019-03-30T21:06:35.298Z,42.73
2019-03-30T21:09:08.762Z,43.63
2019-03-30T21:11:39.559Z,45.29
2019-03-30T21:14:12.950Z,45.35
2019-03-30T21:16:43.916Z,46.99
2019-03-30T21:19:16.520Z,46.62
2019-03-30T21:21:46.259Z,45.66
2019-03-30T21:24:15.938Z,46.32
2019-03-30T21:26:47.179Z,46.78
2019-03-30T21:29:16.740Z,47.26
2019-03-30T21:31:50.368Z,48.41
2019-03-30T21:34:20.248Z,48.57
2019-03-30T21:36:51.554Z,48.52
2019-03-30T21:39:22.229Z,48.75
2019-03-30T21:41:55.494Z,48.83
2019-03-30T21:44:25.132Z,48.91
2019-03-30T21:46:56.191Z,48.64
2019-03-30T21:49:31.007Z,47.88
2019-03-30T21:51:59.776Z,47.46
2019-03-30T21:54:29.364Z,48.36
2019-03-30T21:57:00.000Z,48.79
2019-03-30T21:59:31.272Z,48.67
2019-03-30T22:02:04.439Z,48.51
2019-03-30T22:04:34.072Z,49.42
2019-03-30T22:07:03.679Z,49.13
2019-03-30T22:09:35.125Z,48.53
2019-03-30T22:12:04.760Z,48.75
2019-03-30T22:14:34.334Z,48.74
2019-03-30T22:17:16.839Z,48.53
2019-03-30T22:19:46.438Z,50.27
2019-03-30T22:22:17.954Z,50.01
2019-03-30T22:24:49.074Z,49.46
2019-03-30T22:27:18.721Z,48.52
2019-03-30T22:29:51.211Z,48.19
2019-03-30T22:32:23.773Z,47.72
2019-03-30T22:34:55.331Z,48.58
2019-03-30T22:37:24.934Z,48.57
2019-03-30T22:40:04.934Z,49.04
2019-03-30T22:42:35.820Z,49.80
2019-03-30T22:45:08.416Z,50.66
2019-03-30T22:47:56.125Z,51.27
2019-03-30T22:50:25.757Z,51.75
2019-03-30T22:52:55.355Z,51.97
2019-03-30T22:55:24.957Z,51.53
2019-03-30T22:57:56.475Z,52.18
2019-03-30T23:00:47.814Z,51.79
2019-03-30T23:03:17.773Z,52.48
2019-03-30T23:05:53.134Z,52.28
2019-03-30T23:08:24.455Z,52.53
2019-03-30T23:10:56.108Z,52.44
2019-03-30T23:13:25.806Z,53.19
2019-03-30T23:15:58.153Z,53.22
2019-03-30T23:18:32.387Z,53.18
2019-03-30T23:21:01.960Z,52.60
2019-03-30T23:23:31.535Z,52.57
2019-03-30T23:26:01.512Z,52.68
2019-03-30T23:28:36.676Z,54.50
2019-03-30T23:31:18.653Z,54.00
2019-03-30T23:33:48.258Z,51.60
2019-03-30T23:36:17.839Z,53.14
2019-03-30T23:38:47.437Z,53.72
2019-03-30T23:41:38.775Z,53.59
2019-03-30T23:44:08.822Z,53.58
2019-03-30T23:46:41.503Z,54.17
2019-03-30T23:49:12.449Z,54.50
2019-03-30T23:51:50.750Z,55.03
2019-03-30T23:54:20.381Z,55.47
2019-03-30T23:56:52.420Z,55.74
2019-03-30T23:59:23.506Z,56.48
